createdAt,value
2023-03-15T00:00:15.360Z,99293.38
2023-03-15T00:01:19.809Z,99288.91
2023-03-15T00:02:22.167Z,99293.38
2023-03-15T00:03:24.448Z,99295.03
2023-03-15T00:04:28.604Z,99293.38
2023-03-15T00:05:31.721Z,99288.17
2023-03-15T00:06:38.185Z,99288.17
2023-03-15T00:07:41.393Z,99285.52
2023-03-15T00:08:43.667Z,99283.02
2023-03-15T00:09:46.643Z,99286.62
2023-03-15T00:10:50.716Z,99285.77
2023-03-15T00:11:53.038Z,99281.45
2023-03-15T00:12:56.574Z,99279.77
2023-03-15T00:13:59.521Z,99280.72
2023-03-15T00:15:04.426Z,99273.75
2023-03-15T00:16:07.217Z,99265.91
2023-03-15T00:17:09.460Z,99269.55
2023-03-15T00:18:17.934Z,99267.73
2023-03-15T00:19:24.736Z,99264.24
2023-03-15T00:20:29.771Z,99270.50
2023-03-15T00:21:31.924Z,99265.20
2023-03-15T00:22:37.589Z,99267.98
2023-03-15T00:23:39.725Z,99269.79
2023-03-15T00:24:42.962Z,99268.84
2023-03-15T00:25:50.948Z,99265.34
2023-03-15T00:26:53.272Z,99259.30
2023-03-15T00:27:55.418Z,99260.28
2023-03-15T00:28:57.631Z,99262.08
2023-03-15T00:30:01.095Z,99256.92
2023-03-15T00:32:23.611Z,99257.14
2023-03-15T00:33:26.317Z,99249.46
2023-03-15T00:34:32.490Z,99256.56
2023-03-15T00:35:40.494Z,99252.22
2023-03-15T00:36:42.688Z,99253.91
2023-03-15T00:37:46.054Z,99257.41
2023-03-15T00:38:51.644Z,99258.97
2023-03-15T00:39:53.952Z,99256.18
2023-03-15T00:40:57.866Z,99257.98
2023-03-15T00:42:00.026Z,99252.69
2023-03-15T00:43:02.319Z,99254.63
2023-03-15T00:44:06.074Z,99258.12
2023-03-15T00:45:08.598Z,99251.02
2023-03-15T00:46:17.584Z,99257.98
2023-03-15T00:47:19.806Z,99257.17
2023-03-15T00:48:23.755Z,99260.63
2023-03-15T00:49:25.860Z,99250.17
2023-03-15T00:50:32.873Z,99254.52
2023-03-15T00:51:36.434Z,99250.17
2023-03-15T00:52:40.232Z,99257.27
2023-03-15T00:53:47.540Z,99252.11
2023-03-15T00:54:55.230Z,99256.42
2023-03-15T00:55:58.053Z,99248.48
2023-03-15T00:57:02.753Z,99244.16
2023-03-15T00:58:05.302Z,99252.96
2023-03-15T00:59:07.612Z,99247.66
2023-03-15T01:00:14.644Z,99239.81
2023-03-15T01:01:23.386Z,99239.95
2023-03-15T01:02:25.592Z,99247.05
2023-03-15T01:03:28.690Z,99241.76
2023-03-15T01:04:31.896Z,99247.05
2023-03-15T01:05:35.854Z,99241.05
2023-03-15T01:06:38.164Z,99244.66
2023-03-15T01:07:40.803Z,99241.16
2023-03-15T01:08:43.616Z,99233.20
2023-03-15T01:09:48.456Z,99239.49
2023-03-15T01:10:51.443Z,99243.09
2023-03-15T01:11:54.482Z,99245.85
2023-03-15T01:12:56.792Z,99241.54
2023-03-15T01:14:03.026Z,99253.94
2023-03-15T01:15:08.894Z,99247.79
2023-03-15T01:16:15.413Z,99250.44
2023-03-15T01:17:23.286Z,99248.64
2023-03-15T01:18:26.197Z,99252.00
2023-03-15T01:19:30.440Z,99241.40
2023-03-15T01:20:38.249Z,99253.45
2023-03-15T01:21:42.974Z,99249.00
2023-03-15T01:22:51.828Z,99251.38
2023-03-15T01:23:56.050Z,99256.56
2023-03-15T01:25:01.121Z,99251.02
2023-03-15T01:26:13.832Z,99254.37
2023-03-15T01:27:22.246Z,99252.44
2023-03-15T01:28:25.873Z,99253.04
2023-03-15T01:29:29.167Z,99251.23
2023-03-15T01:30:33.445Z,99251.84
2023-03-15T01:31:35.999Z,99255.30
2023-03-15T01:32:38.207Z,99252.55
2023-03-15T01:33:40.500Z,99255.91
2023-03-15T01:34:43.188Z,99257.45
2023-03-15T01:35:45.718Z,99260.95
2023-03-15T01:36:50.973Z,99258.17
2023-03-15T01:37:53.530Z,99266.86
2023-03-15T01:38:55.981Z,99255.41
2023-03-15T01:40:08.337Z,99249.01
2023-03-15T01:41:14.495Z,99250.70
2023-03-15T01:42:18.121Z,99249.72
2023-03-15T01:43:22.385Z,99244.30
2023-03-15T01:44:29.461Z,99251.27
2023-03-15T01:46:01.393Z,99251.16
2023-03-15T01:47:05.486Z,99247.66
2023-03-15T01:48:09.781Z,99250.91
2023-03-15T01:49:23.929Z,99252.83
2023-03-15T01:50:26.330Z,99252.72
2023-03-15T01:51:37.208Z,99251.73
2023-03-15T01:52:41.098Z,99256.92
2023-03-15T01:53:49.280Z,99254.37
2023-03-15T01:54:53.855Z,99252.58
2023-03-15T01:55:57.601Z,99258.62
2023-03-15T01:57:04.307Z,99260.42
2023-03-15T01:58:07.627Z,99262.23
2023-03-15T01:59:18.064Z,99261.27
2023-03-15T02:00:20.992Z,99264.63
2023-03-15T02:01:28.443Z,99261.13
2023-03-15T02:02:31.237Z,99258.48
2023-03-15T02:03:36.401Z,99258.48
2023-03-15T02:05:56.933Z,99251.32
2023-03-15T02:07:02.774Z,99259.44
2023-03-15T02:08:08.896Z,99260.98
2023-03-15T02:09:14.983Z,99259.19
2023-03-15T02:11:42.062Z,99250.08
2023-03-15T02:12:49.978Z,99250.27
2023-03-15T02:13:54.219Z,99252.92
2023-03-15T02:14:58.728Z,99251.97
2023-03-15T02:16:02.316Z,99247.48
2023-03-15T02:17:06.797Z,99259.78
2023-03-15T02:18:09.617Z,99247.48
2023-03-15T02:20:35.558Z,99249.13
2023-03-15T02:23:14.017Z,99243.92
2023-03-15T02:24:25.949Z,99250.38
2023-03-15T02:25:44.042Z,99247.62
2023-03-15T02:26:54.799Z,99249.31
2023-03-15T02:27:57.914Z,99255.58
2023-03-15T02:29:00.329Z,99248.47
2023-03-15T02:30:04.066Z,99257.38
2023-03-15T02:31:06.721Z,99246.77
2023-03-15T02:32:09.007Z,99247.62
2023-03-15T02:33:14.815Z,99251.12
2023-03-15T02:34:17.427Z,99245.81
2023-03-15T02:36:36.124Z,99247.56
2023-03-15T02:37:38.448Z,99241.72
2023-03-15T02:38:40.950Z,99249.56
2023-03-15T02:39:43.117Z,99249.42
2023-03-15T02:40:47.760Z,99253.77
2023-03-15T02:41:57.657Z,99247.62
2023-03-15T02:44:24.412Z,99237.81
2023-03-15T02:45:28.903Z,99243.52
2023-03-15T02:46:32.300Z,99239.06
2023-03-15T02:47:34.407Z,99240.88
2023-03-15T02:48:38.706Z,99238.22
2023-03-15T02:49:43.375Z,99236.30
2023-03-15T02:50:45.622Z,99233.77
2023-03-15T02:51:47.649Z,99233.66
2023-03-15T02:52:49.824Z,99231.11
2023-03-15T02:53:51.870Z,99225.80
2023-03-15T02:54:56.008Z,99224.95
2023-03-15T02:55:58.442Z,99226.80
2023-03-15T02:57:02.015Z,99224.25
2023-03-15T02:58:06.476Z,99217.99
2023-03-15T02:59:08.694Z,99225.10
2023-03-15T03:00:12.792Z,99226.91
2023-03-15T03:01:15.993Z,99220.90
2023-03-15T03:02:18.477Z,99224.25
2023-03-15T03:03:20.768Z,99227.05
2023-03-15T03:04:22.943Z,99223.55
2023-03-15T03:05:25.612Z,99222.70
2023-03-15T03:06:27.767Z,99221.86
2023-03-15T03:07:30.538Z,99220.05
2023-03-15T03:08:34.876Z,99223.66
2023-03-15T03:09:37.241Z,99219.20
2023-03-15T03:10:39.602Z,99218.36
2023-03-15T03:11:42.216Z,99219.20
2023-03-15T03:12:44.359Z,99213.90
2023-03-15T03:13:46.638Z,99212.23
2023-03-15T03:14:48.772Z,99215.70
2023-03-15T03:15:52.796Z,99210.41
2023-03-15T03:16:56.035Z,99207.75
2023-03-15T03:17:58.445Z,99208.73
2023-03-15T03:19:00.868Z,99214.89
2023-03-15T03:20:09.827Z,99211.39
2023-03-15T03:21:14.352Z,99214.89
2023-03-15T03:22:19.590Z,99215.70
2023-03-15T03:23:24.758Z,99216.70
2023-03-15T03:24:27.091Z,99216.80
2023-03-15T03:25:29.999Z,99210.66
2023-03-15T03:26:32.573Z,99208.84
2023-03-15T03:27:34.724Z,99211.39
2023-03-15T03:28:36.997Z,99207.05
2023-03-15T03:29:40.258Z,99211.50
2023-03-15T03:30:44.934Z,99208.84
2023-03-15T03:31:49.380Z,99210.66
2023-03-15T03:32:52.209Z,99215.95
2023-03-15T03:33:56.022Z,99217.79
2023-03-15T03:34:59.452Z,99217.79
2023-03-15T03:36:01.993Z,99219.45
2023-03-15T03:37:05.287Z,99223.09
2023-03-15T03:38:10.111Z,99209.84
2023-03-15T03:39:33.962Z,99210.80
2023-03-15T03:40:37.597Z,99212.73
2023-03-15T03:41:40.240Z,99209.09
2023-03-15T03:42:43.014Z,99220.70
2023-03-15T03:43:45.687Z,99221.65
2023-03-15T03:44:48.702Z,99221.65
2023-03-15T03:45:54.008Z,99220.80
2023-03-15T03:46:56.320Z,99220.95
2023-03-15T03:47:59.266Z,99222.75
2023-03-15T03:49:01.634Z,99221.05
2023-03-15T03:50:04.244Z,99219.25
2023-03-15T03:51:06.416Z,99216.73
2023-03-15T03:52:08.635Z,99223.00
2023-03-15T03:53:11.651Z,99217.70
2023-03-15T03:54:17.113Z,99218.54
2023-03-15T03:55:19.270Z,99220.34
2023-03-15T03:56:21.628Z,99230.10
2023-03-15T03:57:23.807Z,99219.64
2023-03-15T03:58:26.060Z,99217.84
2023-03-15T03:59:32.974Z,99216.98
2023-03-15T04:00:36.953Z,99213.48
2023-03-15T04:01:40.206Z,99225.05
2023-03-15T04:02:43.127Z,99215.44
2023-03-15T04:03:47.355Z,99219.89
2023-03-15T04:04:51.934Z,99219.89
2023-03-15T04:05:58.242Z,99222.68
2023-03-15T04:07:01.680Z,99219.18
2023-03-15T04:08:08.619Z,99220.14
2023-03-15T04:09:14.224Z,99220.14
2023-03-15T04:10:18.478Z,99229.78
2023-03-15T04:11:22.573Z,99220.28
2023-03-15T04:12:26.672Z,99222.08
2023-03-15T04:13:30.706Z,99227.38
2023-03-15T04:14:34.804Z,99229.08
2023-03-15T04:15:38.859Z,99229.89
2023-03-15T04:16:41.564Z,99223.77
2023-03-15T04:17:45.524Z,99224.73
2023-03-15T04:18:48.089Z,99226.53
2023-03-15T04:19:50.634Z,99229.19
2023-03-15T04:20:54.935Z,99230.87
2023-03-15T04:21:58.386Z,99234.48
2023-03-15T04:24:43.747Z,99237.09
2023-03-15T04:27:05.882Z,99232.05
2023-03-15T04:28:26.730Z,99235.12
2023-03-15T04:29:30.798Z,99227.77
2023-03-15T04:30:34.684Z,99239.19
2023-03-15T04:31:44.344Z,99230.42
2023-03-15T04:33:07.997Z,99232.08
2023-03-15T04:34:21.045Z,99225.94
2023-03-15T04:35:35.460Z,99225.94
2023-03-15T04:36:56.822Z,99225.12
2023-03-15T04:38:04.415Z,99225.83
2023-03-15T04:39:09.315Z,99229.33
2023-03-15T04:40:26.313Z,99220.52
2023-03-15T04:41:33.815Z,99227.48
2023-03-15T04:42:37.798Z,99229.19
2023-03-15T04:43:47.636Z,99223.88
2023-03-15T04:44:54.826Z,99230.03
2023-03-15T04:46:13.012Z,99230.87
2023-03-15T04:47:22.904Z,99231.73
2023-03-15T04:48:38.721Z,99229.08
2023-03-15T04:49:42.746Z,99232.44
2023-03-15T04:50:47.370Z,99228.80
2023-03-15T04:51:54.304Z,99229.78
2023-03-15T04:53:02.567Z,99234.95
2023-03-15T04:54:19.988Z,99231.34
2023-03-15T04:55:29.817Z,99237.34
2023-03-15T04:56:34.310Z,99233.84
2023-03-15T04:57:47.525Z,99244.45
2023-03-15T05:00:11.230Z,99239.11
2023-03-15T05:01:16.012Z,99238.58
2023-03-15T05:02:26.069Z,99240.25
2023-03-15T05:03:32.899Z,99242.79
2023-03-15T05:04:36.933Z,99242.65
2023-03-15T05:06:57.480Z,99240.91
2023-03-15T05:08:13.809Z,99246.53
2023-03-15T05:10:38.629Z,99241.30
2023-03-15T05:11:59.347Z,99242.58
2023-03-15T05:13:12.477Z,99244.38
2023-03-15T05:14:16.499Z,99239.19
2023-03-15T05:15:32.799Z,99236.67
2023-03-15T05:16:37.080Z,99239.44
2023-03-15T05:17:53.703Z,99238.72
2023-03-15T05:19:00.515Z,99244.27
2023-03-15T05:20:15.603Z,99247.77
2023-03-15T05:21:19.606Z,99247.91
2023-03-15T05:22:42.708Z,99254.16
2023-03-15T05:23:44.812Z,99254.30
2023-03-15T05:24:53.903Z,99257.91
2023-03-15T05:26:05.478Z,99257.19
2023-03-15T05:27:27.761Z,99266.80
2023-03-15T05:28:46.031Z,99258.99
2023-03-15T05:29:54.038Z,99258.99
2023-03-15T05:31:15.512Z,99252.98
2023-03-15T05:32:25.432Z,99267.05
2023-03-15T05:34:47.285Z,99266.31
2023-03-15T05:36:10.378Z,99264.07
2023-03-15T05:37:21.672Z,99265.62
2023-03-15T05:38:32.841Z,99267.33
2023-03-15T05:39:37.502Z,99262.13
2023-03-15T05:40:45.423Z,99260.33
2023-03-15T05:43:08.185Z,99259.70
2023-03-15T05:44:27.693Z,99265.41
2023-03-15T05:45:43.616Z,99269.85
2023-03-15T05:47:04.567Z,99267.09
2023-03-15T05:48:15.233Z,99262.75
2023-03-15T05:49:22.364Z,99275.86
2023-03-15T05:50:26.629Z,99274.20
2023-03-15T05:51:31.966Z,99271.66
2023-03-15T05:52:54.708Z,99271.79
2023-03-15T05:54:16.823Z,99274.44
2023-03-15T05:55:21.839Z,99262.14
2023-03-15T05:57:54.191Z,99253.47
2023-03-15T05:58:58.893Z,99262.63
2023-03-15T06:01:23.377Z,99270.46
2023-03-15T09:44:40.642Z,99200.06
2023-03-15T09:46:05.387Z,99194.76
2023-03-15T09:47:36.236Z,99202.59
2023-03-15T09:49:13.075Z,99207.63
2023-03-15T09:50:23.363Z,99200.34
2023-03-15T09:51:41.764Z,99203.56
2023-03-15T09:53:01.671Z,99203.28
2023-03-15T09:55:37.018Z,99191.77
2023-03-15T09:56:47.546Z,99195.27
2023-03-15T09:58:03.077Z,99193.02
2023-03-15T09:59:10.497Z,99187.57
2023-03-15T10:01:41.468Z,99177.85
2023-03-15T10:02:51.789Z,99181.40
2023-03-15T10:05:28.894Z,99175.98
2023-03-15T10:06:32.259Z,99177.85
2023-03-15T10:07:37.512Z,99177.44
2023-03-15T10:08:40.559Z,99169.13
2023-03-15T10:11:12.682Z,99177.22
2023-03-15T10:12:25.724Z,99181.58
2023-03-15T10:13:48.370Z,99184.80
2023-03-15T10:15:28.360Z,99178.34
2023-03-15T10:16:50.993Z,99186.73
2023-03-15T10:18:06.465Z,99178.30
2023-03-15T10:19:37.963Z,99182.36
2023-03-15T10:22:06.597Z,99180.29
2023-03-15T10:23:22.326Z,99171.64
2023-03-15T10:25:00.737Z,99174.17
2023-03-15T10:26:06.186Z,99173.72
2023-03-15T10:27:21.841Z,99167.97
2023-03-15T10:28:28.183Z,99161.64
2023-03-15T10:29:30.609Z,99169.34
2023-03-15T10:30:36.796Z,99168.06
2023-03-15T10:31:44.797Z,99162.58
2023-03-15T10:34:03.975Z,99161.81
2023-03-15T10:35:15.445Z,99157.63
2023-03-15T10:36:22.044Z,99155.52
2023-03-15T10:37:26.082Z,99161.39
2023-03-15T10:38:29.586Z,99160.25
2023-03-15T10:39:33.503Z,99161.81
2023-03-15T10:40:46.423Z,99166.84
2023-03-15T10:41:52.359Z,99168.38
2023-03-15T10:42:59.079Z,99167.23
2023-03-15T10:45:31.785Z,99163.72
2023-03-15T10:46:40.345Z,99167.61
2023-03-15T10:47:50.431Z,99171.64
2023-03-15T10:49:01.690Z,99174.84
2023-03-15T10:50:05.081Z,99173.70
2023-03-15T10:51:23.209Z,99173.41
2023-03-15T10:52:39.599Z,99174.93
2023-03-15T10:53:59.312Z,99177.16
2023-03-15T10:55:19.251Z,99174.16
2023-03-15T10:56:31.216Z,99172.88
2023-03-15T10:57:39.130Z,99172.58
2023-03-15T10:58:45.219Z,99162.45
2023-03-15T11:00:02.345Z,99164.79
2023-03-15T11:01:08.361Z,99160.16
2023-03-15T11:03:29.770Z,99148.16
2023-03-15T11:04:34.379Z,99146.58
2023-03-15T11:05:49.145Z,99157.77
2023-03-15T11:08:20.131Z,99152.23
2023-03-15T11:09:23.892Z,99156.84
2023-03-15T11:10:30.215Z,99154.55
2023-03-15T11:13:20.832Z,99149.85
2023-03-15T11:16:04.697Z,99139.39
2023-03-15T11:17:10.717Z,99148.34
2023-03-15T11:18:22.448Z,99139.17
2023-03-15T11:19:31.832Z,99140.55
2023-03-15T11:20:39.010Z,99141.22
2023-03-15T11:21:43.357Z,99147.06
2023-03-15T11:22:53.417Z,99150.27
2023-03-15T11:23:57.171Z,99153.61
2023-03-15T11:24:59.857Z,99149.81
2023-03-15T11:26:02.609Z,99145.14
2023-03-15T11:27:12.929Z,99154.67
2023-03-15T11:28:22.984Z,99153.55
2023-03-15T11:29:34.896Z,99148.88
2023-03-15T11:30:40.507Z,99151.41
2023-03-15T11:31:44.526Z,99144.91
2023-03-15T11:32:48.351Z,99150.92
2023-03-15T11:34:06.953Z,99148.78
2023-03-15T11:36:43.106Z,99139.99
2023-03-15T11:38:06.180Z,99143.78
2023-03-15T11:39:09.308Z,99142.77
2023-03-15T11:40:21.737Z,99148.64
2023-03-15T11:43:08.352Z,99140.70
2023-03-15T11:44:21.636Z,99142.98
2023-03-15T11:45:32.532Z,99140.66
2023-03-15T11:48:23.393Z,99138.38
2023-03-15T11:49:35.782Z,99138.16
2023-03-15T11:50:40.332Z,99137.98
2023-03-15T11:51:46.720Z,99138.83
2023-03-15T11:52:51.710Z,99142.34
2023-03-15T11:55:29.758Z,99140.06
2023-03-15T11:56:49.833Z,99144.35
2023-03-15T11:59:21.375Z,99142.06
2023-03-15T12:00:36.240Z,99150.69
2023-03-15T12:03:28.891Z,99142.91
2023-03-15T12:06:19.282Z,99137.41
2023-03-15T12:07:25.585Z,99139.91
2023-03-15T12:08:48.720Z,99131.92
2023-03-15T12:10:04.359Z,99134.77
2023-03-15T12:11:13.558Z,99129.44
2023-03-15T12:12:31.258Z,99129.64
2023-03-15T12:13:37.132Z,99132.47
2023-03-15T12:14:39.877Z,99133.83
2023-03-15T12:15:44.625Z,99124.46
2023-03-15T12:16:54.019Z,99122.97
2023-03-15T12:18:04.304Z,99119.82
2023-03-15T12:19:18.956Z,99115.64
2023-03-15T12:20:40.498Z,99114.47
2023-03-15T12:21:59.609Z,99121.99
2023-03-15T12:24:35.955Z,99117.84
2023-03-15T12:25:56.037Z,99121.70
2023-03-15T12:27:07.818Z,99122.03
2023-03-15T12:28:30.634Z,99118.88
2023-03-15T12:29:35.118Z,99118.03
2023-03-15T12:30:46.426Z,99118.88
2023-03-15T12:31:59.279Z,99115.35
2023-03-15T12:33:04.569Z,99112.02
2023-03-15T12:34:14.407Z,99116.68
2023-03-15T12:35:22.795Z,99116.02
2023-03-15T12:36:37.793Z,99112.68
2023-03-15T12:37:46.825Z,99118.18
2023-03-15T12:40:21.141Z,99120.70
2023-03-15T12:43:11.681Z,99125.55
2023-03-15T12:44:39.709Z,99125.52
2023-03-15T12:45:44.295Z,99129.91
2023-03-15T12:48:07.695Z,99128.73
2023-03-15T12:49:26.795Z,99127.86
2023-03-15T12:50:52.295Z,99130.53
2023-03-15T12:51:59.777Z,99126.17
2023-03-15T12:53:30.969Z,99119.83
2023-03-15T12:54:58.853Z,99124.52
2023-03-15T12:56:30.728Z,99121.84
2023-03-15T12:57:48.566Z,99118.32
2023-03-15T12:58:55.986Z,99130.67
2023-03-15T13:00:00.683Z,99122.83
2023-03-15T13:01:05.854Z,99116.48
2023-03-15T13:03:52.837Z,99112.50
2023-03-15T13:07:05.643Z,99116.86
2023-03-15T13:08:20.243Z,99122.83
2023-03-15T13:10:00.204Z,99127.86
2023-03-15T13:11:15.333Z,99123.83
2023-03-15T13:12:24.547Z,99124.23
2023-03-15T13:15:23.108Z,99124.22
2023-03-15T13:18:12.269Z,99123.19
2023-03-15T13:19:27.789Z,99132.73
2023-03-15T13:21:06.345Z,99131.75
2023-03-15T13:22:30.333Z,99131.75
2023-03-15T13:23:33.822Z,99131.75
2023-03-15T13:24:52.707Z,99132.73
2023-03-15T13:26:26.345Z,99136.59
2023-03-15T13:27:48.810Z,99151.00
2023-03-15T13:29:08.145Z,99142.13
2023-03-15T13:31:40.984Z,99148.98
2023-03-15T13:32:43.999Z,99145.28
2023-03-15T13:33:48.485Z,99150.64
2023-03-15T13:34:54.078Z,99152.32
2023-03-15T13:36:01.617Z,99147.96
2023-03-15T13:37:08.179Z,99144.47
2023-03-15T13:38:44.759Z,99151.66
2023-03-15T13:39:59.402Z,99152.66
2023-03-15T13:41:04.464Z,99145.47
2023-03-15T13:42:18.767Z,99145.47
2023-03-15T13:43:28.922Z,99139.27
2023-03-15T13:44:34.028Z,99144.80
2023-03-15T13:45:41.132Z,99140.30
2023-03-15T13:46:50.123Z,99147.48
2023-03-15T13:47:53.644Z,99143.96
2023-03-15T13:48:56.164Z,99145.80
2023-03-15T13:49:58.957Z,99146.64
2023-03-15T13:51:08.472Z,99147.48
2023-03-15T13:52:12.462Z,99149.31
2023-03-15T13:53:22.902Z,99149.13
2023-03-15T13:54:28.911Z,99152.83
2023-03-15T13:55:37.055Z,99150.16
2023-03-15T13:58:08.626Z,99148.80
2023-03-15T13:59:12.306Z,99141.61
2023-03-15T14:00:19.394Z,99144.95
2023-03-15T14:01:23.755Z,99139.59
2023-03-15T14:02:44.943Z,99143.96
2023-03-15T14:03:50.824Z,99134.76
2023-03-15T14:04:59.661Z,99133.25
2023-03-15T14:06:03.453Z,99138.09
2023-03-15T14:07:31.389Z,99131.23
2023-03-15T14:08:37.629Z,99129.06
2023-03-15T14:09:40.142Z,99119.70
2023-03-15T14:10:43.659Z,99119.52
2023-03-15T14:11:46.367Z,99126.38
2023-03-15T14:12:54.940Z,99125.37
2023-03-15T14:14:00.435Z,99126.88
2023-03-15T14:15:27.296Z,99128.38
2023-03-15T14:17:03.236Z,99125.52
2023-03-15T14:17:57.436Z,99126.87
2023-03-15T14:20:43.191Z,99120.09
2023-03-15T14:21:54.680Z,99119.95
2023-03-15T14:23:04.730Z,99117.91
2023-03-15T14:24:11.788Z,99120.88
2023-03-15T14:25:21.647Z,99114.36
2023-03-15T14:26:30.528Z,99120.84
2023-03-15T14:27:33.259Z,99118.58
2023-03-15T14:28:37.118Z,99117.19
2023-03-15T14:31:13.521Z,99117.13
2023-03-15T14:32:28.240Z,99112.11
2023-03-15T14:33:34.330Z,99114.02
2023-03-15T14:34:46.339Z,99114.09
2023-03-15T14:35:52.589Z,99122.20
2023-03-15T14:36:59.302Z,99117.88
2023-03-15T14:38:26.932Z,99116.61
2023-03-15T14:39:33.489Z,99117.00
2023-03-15T14:40:37.724Z,99117.00
2023-03-15T14:41:42.183Z,99108.67
2023-03-15T14:42:50.411Z,99110.27
2023-03-15T14:43:55.492Z,99120.75
2023-03-15T14:44:58.302Z,99100.98
2023-03-15T14:46:03.168Z,99103.57
2023-03-15T14:47:16.542Z,99101.81
2023-03-15T14:48:25.070Z,99109.95
2023-03-15T14:49:28.505Z,99107.16
2023-03-15T14:50:38.970Z,99100.85
2023-03-15T14:51:42.560Z,99100.07
2023-03-15T14:52:52.379Z,99103.69
2023-03-15T14:53:58.104Z,99108.31
2023-03-15T14:55:00.801Z,99102.35
2023-03-15T14:56:03.462Z,99110.69
2023-03-15T14:57:06.377Z,99118.18
2023-03-15T14:58:16.790Z,99108.73
2023-03-15T15:00:39.251Z,99108.73
2023-03-15T15:01:46.997Z,99106.51
2023-03-15T15:02:54.949Z,99105.84
2023-03-15T15:04:02.886Z,99121.36
2023-03-15T15:05:30.934Z,99104.72
2023-03-15T15:06:35.470Z,99111.14
2023-03-15T15:07:44.188Z,99111.91
2023-03-15T15:08:48.999Z,99114.51
2023-03-15T15:11:12.265Z,99104.78
2023-03-15T15:12:22.442Z,99114.69
2023-03-15T15:13:27.928Z,99108.00
2023-03-15T15:14:41.511Z,99112.27
2023-03-15T15:15:55.011Z,99118.23
2023-03-15T15:16:57.949Z,99116.28
2023-03-15T15:17:56.200Z,99114.17
2023-03-15T15:18:58.464Z,99117.59
2023-03-15T15:20:01.341Z,99116.48
2023-03-15T15:21:20.702Z,99115.58
2023-03-15T15:22:23.154Z,99121.02
2023-03-15T15:23:32.363Z,99120.44
2023-03-15T15:24:36.249Z,99117.84
2023-03-15T15:25:38.709Z,99127.84
2023-03-15T15:26:44.798Z,99113.47
2023-03-15T15:27:50.975Z,99119.58
2023-03-15T15:29:00.402Z,99119.48
2023-03-15T15:30:05.317Z,99116.87
2023-03-15T15:31:13.030Z,99124.98
2023-03-15T15:33:36.782Z,99120.36
2023-03-15T15:34:42.181Z,99115.19
2023-03-15T15:35:45.881Z,99119.39
2023-03-15T15:36:49.084Z,99122.78
2023-03-15T15:37:53.495Z,99135.08
2023-03-15T15:38:59.871Z,99128.73
2023-03-15T15:40:12.528Z,99135.64
2023-03-15T15:42:35.809Z,99134.50
2023-03-15T15:43:42.868Z,99134.64
2023-03-15T15:44:47.681Z,99132.68
2023-03-15T15:45:52.720Z,99128.84
2023-03-15T15:46:58.073Z,99126.86
2023-03-15T15:48:01.250Z,99133.56
2023-03-15T15:49:10.114Z,99127.39
2023-03-15T15:50:20.219Z,99135.13
2023-03-15T15:51:31.342Z,99139.64
2023-03-15T15:53:52.025Z,99126.77
2023-03-15T15:56:11.983Z,99133.36
2023-03-15T15:57:15.541Z,99135.75
2023-03-15T15:58:20.481Z,99137.92
2023-03-15T15:59:25.009Z,99133.08
2023-03-15T16:00:28.482Z,99134.59
2023-03-15T16:01:32.264Z,99137.75
2023-03-15T16:02:38.680Z,99141.80
2023-03-15T16:03:44.039Z,99141.46
2023-03-15T16:04:48.300Z,99146.64
2023-03-15T16:05:53.495Z,99151.00
2023-03-15T16:09:37.418Z,99138.27
2023-03-15T16:10:43.176Z,99143.90
2023-03-15T16:11:50.718Z,99140.70
2023-03-15T16:12:57.335Z,99135.68
2023-03-15T16:15:25.713Z,99137.05
2023-03-15T16:16:31.864Z,99141.98
2023-03-15T16:17:35.324Z,99143.33
2023-03-15T16:18:44.658Z,99148.16
2023-03-15T16:19:54.443Z,99152.31
2023-03-15T16:21:02.157Z,99145.64
2023-03-15T16:22:04.717Z,99143.42
2023-03-15T16:23:17.523Z,99145.44
2023-03-15T16:24:28.705Z,99141.42
2023-03-15T16:25:34.822Z,99137.39
2023-03-15T16:26:43.280Z,99144.88
2023-03-15T16:27:52.484Z,99152.41
2023-03-15T16:28:56.035Z,99151.88
2023-03-15T16:29:59.570Z,99151.53
2023-03-15T16:31:02.675Z,99151.98
2023-03-15T16:32:17.916Z,99156.97
2023-03-15T16:33:18.027Z,99160.14
2023-03-15T16:34:20.477Z,99160.63
2023-03-15T16:35:34.776Z,99154.89
2023-03-15T16:36:42.530Z,99149.05
2023-03-15T16:37:45.667Z,99156.50
2023-03-15T16:38:55.329Z,99147.95
2023-03-15T16:40:00.291Z,99143.09
2023-03-15T16:41:08.387Z,99146.92
2023-03-15T16:42:15.816Z,99149.06
2023-03-15T16:43:20.590Z,99152.04
2023-03-15T16:44:26.112Z,99145.36
2023-03-15T16:45:29.936Z,99146.51
2023-03-15T16:48:03.430Z,99145.05
2023-03-15T16:49:17.208Z,99146.09
2023-03-15T16:50:24.624Z,99147.07
2023-03-15T16:51:27.886Z,99148.89
2023-03-15T16:52:35.222Z,99147.37
2023-03-15T16:53:40.400Z,99148.66
2023-03-15T16:54:58.673Z,99151.50
2023-03-15T16:57:24.552Z,99146.23
2023-03-15T16:58:32.447Z,99151.61
2023-03-15T16:59:34.746Z,99146.41
2023-03-15T17:00:37.248Z,99148.41
2023-03-15T17:01:40.355Z,99158.23
2023-03-15T17:04:02.921Z,99153.27
2023-03-15T17:05:07.759Z,99147.97
2023-03-15T17:06:19.740Z,99144.45
2023-03-15T17:07:34.405Z,99144.45
2023-03-15T17:08:40.887Z,99155.27
2023-03-15T17:09:46.763Z,99147.26
2023-03-15T17:10:50.851Z,99150.09
2023-03-15T17:11:56.132Z,99151.91
2023-03-15T17:13:02.351Z,99145.91
2023-03-15T17:15:45.658Z,99140.64
2023-03-15T17:16:50.037Z,99142.32
2023-03-15T17:18:00.454Z,99147.83
2023-03-15T17:19:14.622Z,99141.77
2023-03-15T17:20:19.226Z,99140.13
2023-03-15T17:21:24.309Z,99142.08
2023-03-15T17:22:30.430Z,99153.59
2023-03-15T17:23:33.261Z,99145.05
2023-03-15T17:24:38.634Z,99147.87
2023-03-15T17:25:41.800Z,99147.03
2023-03-15T17:26:50.759Z,99152.67
2023-03-15T17:27:59.570Z,99143.02
2023-03-15T17:29:04.169Z,99148.48
2023-03-15T17:30:34.121Z,99151.31
2023-03-15T17:31:39.481Z,99150.63
2023-03-15T17:32:42.782Z,99153.43
2023-03-15T17:33:46.296Z,99152.89
2023-03-15T17:34:49.282Z,99152.20
2023-03-15T17:35:53.221Z,99147.04
2023-03-15T17:36:59.706Z,99148.18
2023-03-15T17:38:06.247Z,99151.66
2023-03-15T17:39:24.129Z,99150.14
2023-03-15T17:40:32.041Z,99148.48
2023-03-15T17:41:38.416Z,99150.30
2023-03-15T17:42:43.374Z,99154.92
2023-03-15T17:43:46.241Z,99163.05
2023-03-15T17:44:51.644Z,99151.55
2023-03-15T17:46:00.283Z,99162.37
2023-03-15T17:47:04.980Z,99163.34
2023-03-15T17:48:08.643Z,99159.31
2023-03-15T17:49:15.947Z,99168.30
2023-03-15T17:51:34.681Z,99169.06
2023-03-15T17:52:39.522Z,99170.73
2023-03-15T17:53:44.849Z,99169.04
2023-03-15T17:54:49.416Z,99172.55
2023-03-15T17:55:55.004Z,99176.19
2023-03-15T17:57:02.228Z,99175.52
2023-03-15T17:58:14.999Z,99165.14
2023-03-15T18:00:33.762Z,99168.59
2023-03-15T18:01:40.255Z,99183.70
2023-03-15T18:02:54.971Z,99179.05
2023-03-15T18:03:52.957Z,99178.20
2023-03-15T18:17:15.126Z,99181.71
2023-03-15T18:29:34.448Z,99182.59
2023-03-15T18:43:43.085Z,99183.11
2023-03-15T18:52:43.069Z,99178.85
2023-03-15T19:05:55.709Z,99190.48
2023-03-15T19:06:59.591Z,99194.77
2023-03-15T19:08:04.845Z,99198.41
2023-03-15T19:09:14.990Z,99193.21
2023-03-15T19:10:22.621Z,99188.05
2023-03-15T19:11:26.805Z,99192.69
2023-03-15T19:12:34.919Z,99185.67
2023-03-15T19:15:15.768Z,99187.59
2023-03-15T19:16:22.081Z,99191.03
2023-03-15T19:17:26.443Z,99196.36
2023-03-15T19:18:29.149Z,99191.03
2023-03-15T19:19:39.717Z,99194.83
2023-03-15T19:20:46.654Z,99197.62
2023-03-15T19:21:51.741Z,99186.97
2023-03-15T19:23:01.032Z,99193.27